createdAt,value
2019-05-26T00:03:35.167Z,20.77
2019-05-26T00:07:59.415Z,22.83
2019-05-26T00:12:23.898Z,21.27
2019-05-26T00:16:48.195Z,23.47
2019-05-26T00:21:12.483Z,20.33
2019-05-26T00:25:37.574Z,23.70
2019-05-26T00:30:01.603Z,23.07
2019-05-26T00:34:25.628Z,21.40
2019-05-26T00:38:49.966Z,23.70
2019-05-26T00:43:14.047Z,24.43
2019-05-26T00:47:39.116Z,21.93
2019-05-26T00:52:04.174Z,22.90
2019-05-26T00:56:29.369Z,26.63
2019-05-26T01:00:54.374Z,22.57
2019-05-26T01:05:19.695Z,20.13
2019-05-26T01:09:44.834Z,23.53
2019-05-26T01:14:03.674Z,22.00
2019-05-26T01:18:12.997Z,28.00
2019-05-26T01:22:23.736Z,23.87
2019-05-26T01:26:33.564Z,23.67
2019-05-26T01:30:43.693Z,30.23
2019-05-26T01:34:53.873Z,27.17
2019-05-26T01:39:05.303Z,33.23
2019-05-26T01:43:13.792Z,31.73
2019-05-26T01:47:21.221Z,29.43
2019-05-26T01:51:35.315Z,25.63
2019-05-26T01:55:46.038Z,26.00
2019-05-26T01:59:54.050Z,24.13
2019-05-26T02:04:03.397Z,23.00
2019-05-26T02:08:13.546Z,24.83
2019-05-26T02:12:22.531Z,24.57
2019-05-26T02:16:33.424Z,23.63
2019-05-26T02:20:43.726Z,26.47
2019-05-26T02:24:53.366Z,27.77
2019-05-26T02:29:17.764Z,26.30
2019-05-26T02:33:43.003Z,21.63
2019-05-26T02:38:08.294Z,24.40
2019-05-26T02:42:33.168Z,21.10
2019-05-26T02:46:57.679Z,21.70
2019-05-26T02:51:23.000Z,22.57
2019-05-26T02:55:47.946Z,24.93
2019-05-26T03:00:14.514Z,23.77
2019-05-26T03:04:40.886Z,24.80
2019-05-26T03:08:50.594Z,22.13
2019-05-26T03:13:13.883Z,20.73
2019-05-26T03:17:37.337Z,22.93
2019-05-26T03:22:03.396Z,21.30
2019-05-26T03:26:29.587Z,23.23
2019-05-26T03:30:44.084Z,23.17
2019-05-26T03:34:52.017Z,21.27
2019-05-26T03:39:05.009Z,20.67
2019-05-26T03:43:13.139Z,25.30
2019-05-26T03:47:19.965Z,20.53
2019-05-26T03:51:32.221Z,20.07
2019-05-26T03:55:57.154Z,24.00
2019-05-26T04:00:06.687Z,22.33
2019-05-26T04:04:14.003Z,27.40
2019-05-26T04:08:21.665Z,21.63
2019-05-26T04:12:28.394Z,19.70
2019-05-26T04:16:36.147Z,19.07
2019-05-26T04:20:45.977Z,18.40
2019-05-26T04:24:53.369Z,18.87
2019-05-26T04:29:02.068Z,14.43
2019-05-26T04:33:10.157Z,16.43
2019-05-26T04:37:23.032Z,14.40
2019-05-26T04:41:33.302Z,15.43
2019-05-26T04:45:43.546Z,14.10
2019-05-26T04:49:56.287Z,14.47
2019-05-26T04:54:05.671Z,13.80
2019-05-26T04:58:13.339Z,15.60
2019-05-26T05:02:20.366Z,12.40
2019-05-26T05:06:44.602Z,11.30
2019-05-26T05:11:09.991Z,11.77
2019-05-26T05:15:35.113Z,15.53
2019-05-26T05:20:00.157Z,11.73
2019-05-26T05:24:25.420Z,12.43
2019-05-26T05:28:50.255Z,13.00
2019-05-26T05:33:06.178Z,11.17
2019-05-26T05:37:14.425Z,10.70
2019-05-26T05:41:38.852Z,11.03
2019-05-26T05:45:46.685Z,12.07
2019-05-26T05:49:53.091Z,14.97
2019-05-26T05:54:01.107Z,14.13
2019-05-26T05:58:13.122Z,14.03
2019-05-26T06:02:22.110Z,15.13
2019-05-26T06:06:32.930Z,15.17
2019-05-26T06:10:39.462Z,15.90
2019-05-26T06:14:47.368Z,17.37
2019-05-26T06:19:03.189Z,20.80
2019-05-26T06:23:13.074Z,16.13
2019-05-26T06:27:20.659Z,17.37
2019-05-26T06:31:33.506Z,18.30
2019-05-26T06:35:43.046Z,17.67
2019-05-26T06:39:53.207Z,15.53
2019-05-26T06:44:05.326Z,16.80
2019-05-26T06:48:13.440Z,15.00
2019-05-26T06:52:19.969Z,18.93
2019-05-26T06:56:32.878Z,15.17
2019-05-26T07:00:43.216Z,12.53
2019-05-26T07:04:50.602Z,16.47
2019-05-26T07:09:15.535Z,13.07
2019-05-26T07:13:26.746Z,10.87
2019-05-26T07:17:51.976Z,14.27
2019-05-26T07:22:17.214Z,10.67
2019-05-26T07:26:34.177Z,11.60
2019-05-26T07:30:41.808Z,11.10
2019-05-26T07:35:10.069Z,13.10
2019-05-26T07:39:18.285Z,11.07
2019-05-26T07:43:35.069Z,11.43
2019-05-26T07:47:46.721Z,10.70
2019-05-26T07:51:53.190Z,10.37
2019-05-26T07:56:01.253Z,12.33
2019-05-26T08:00:09.908Z,10.80
2019-05-26T08:04:21.623Z,11.60
2019-05-26T08:08:38.983Z,10.73
2019-05-26T08:12:46.835Z,11.37
2019-05-26T08:16:59.383Z,9.80
2019-05-26T08:21:07.556Z,8.50
2019-05-26T08:25:20.949Z,9.33
2019-05-26T08:29:45.035Z,9.97
2019-05-26T08:33:52.098Z,10.03
2019-05-26T08:38:05.512Z,5.53
2019-05-26T08:42:26.805Z,8.53
2019-05-26T08:46:33.149Z,9.67
2019-05-26T08:50:55.089Z,8.23
2019-05-26T08:55:07.355Z,8.00
2019-05-26T08:59:23.365Z,7.17
2019-05-26T09:03:49.581Z,8.17
2019-05-26T09:07:57.475Z,6.90
2019-05-26T09:12:06.073Z,9.03
2019-05-26T09:16:31.092Z,9.10
2019-05-26T09:20:59.874Z,7.03
2019-05-26T09:25:09.817Z,7.13
2019-05-26T09:29:35.671Z,6.63
2019-05-26T09:33:49.313Z,6.10
2019-05-26T09:38:05.137Z,5.67
2019-05-26T09:42:16.635Z,6.10
2019-05-26T09:46:24.554Z,8.17
2019-05-26T09:50:33.914Z,6.20
2019-05-26T09:54:58.898Z,4.83
2019-05-26T09:59:24.158Z,7.63
2019-05-26T10:03:30.490Z,5.83
2019-05-26T10:07:38.205Z,6.47
2019-05-26T10:11:48.911Z,3.77
2019-05-26T10:15:56.183Z,3.73
2019-05-26T10:20:15.280Z,3.47
2019-05-26T10:24:24.710Z,5.50
2019-05-26T10:28:39.691Z,6.73
2019-05-26T10:32:48.868Z,6.57
2019-05-26T10:36:57.318Z,6.30
2019-05-26T10:41:05.164Z,9.53
2019-05-26T10:45:13.012Z,6.07
2019-05-26T10:49:21.165Z,6.07
2019-05-26T10:53:35.473Z,7.07
2019-05-26T10:57:43.508Z,7.40
2019-05-26T11:02:02.484Z,6.03
2019-05-26T11:06:10.650Z,7.93
2019-05-26T11:10:19.484Z,7.10
2019-05-26T11:14:27.635Z,7.27
2019-05-26T11:18:44.901Z,6.90
2019-05-26T11:23:09.621Z,6.80
2019-05-26T11:27:33.802Z,4.00
2019-05-26T11:31:43.182Z,7.10
2019-05-26T11:35:51.118Z,5.63
2019-05-26T11:40:16.831Z,7.37
2019-05-26T11:44:24.883Z,3.80
2019-05-26T11:48:39.386Z,8.93
2019-05-26T11:53:04.541Z,5.97
2019-05-26T11:57:13.842Z,6.87
2019-05-26T12:01:22.994Z,7.27
2019-05-26T12:05:29.518Z,7.30
2019-05-26T12:09:55.821Z,8.30
2019-05-26T12:14:03.009Z,4.53
2019-05-26T12:18:10.973Z,3.87
2019-05-26T12:22:17.988Z,5.10
2019-05-26T12:26:26.665Z,6.20
2019-05-26T12:30:51.510Z,4.83
2019-05-26T12:35:07.764Z,2.83
2019-05-26T12:39:15.842Z,5.57
2019-05-26T12:43:23.761Z,3.37
2019-05-26T12:47:48.607Z,4.00
2019-05-26T12:52:05.483Z,13.23
2019-05-26T12:56:12.524Z,3.73
2019-05-26T13:00:20.661Z,4.00
2019-05-26T13:04:30.327Z,3.93
2019-05-26T13:08:36.847Z,5.47
2019-05-26T13:13:01.746Z,3.53
2019-05-26T13:17:08.161Z,4.37
2019-05-26T13:21:33.030Z,3.73
2019-05-26T13:25:42.418Z,9.00
2019-05-26T13:29:54.219Z,3.40
2019-05-26T13:34:03.573Z,10.87
2019-05-26T13:38:12.898Z,3.17
2019-05-26T13:42:20.862Z,5.70
2019-05-26T13:46:34.141Z,4.20
2019-05-26T13:50:43.001Z,6.03
2019-05-26T13:55:09.051Z,5.30
2019-05-26T13:59:18.823Z,8.43
2019-05-26T14:03:44.038Z,2.50
2019-05-26T14:07:58.462Z,5.37
2019-05-26T14:12:05.491Z,2.87
2019-05-26T14:16:31.282Z,7.83
2019-05-26T14:20:42.666Z,3.00
2019-05-26T14:24:54.084Z,7.23
2019-05-26T14:29:15.406Z,8.83
2019-05-26T14:33:22.434Z,6.33
2019-05-26T14:37:40.291Z,5.73
2019-05-26T14:42:05.446Z,4.63
2019-05-26T14:46:30.649Z,4.77
2019-05-26T14:50:42.699Z,4.37
2019-05-26T14:55:07.278Z,2.20
2019-05-26T14:59:32.397Z,3.97
2019-05-26T15:03:57.277Z,3.53
2019-05-26T15:08:05.538Z,3.13
2019-05-26T15:12:13.640Z,4.93
2019-05-26T15:16:38.286Z,5.63
2019-05-26T15:20:44.658Z,5.43
2019-05-26T15:24:52.611Z,7.53
2019-05-26T15:29:05.261Z,6.20
2019-05-26T15:33:13.082Z,5.83
2019-05-26T15:37:37.942Z,4.33
2019-05-26T15:42:03.215Z,5.37
2019-05-26T15:46:28.073Z,3.80
2019-05-26T15:50:36.575Z,5.43
2019-05-26T15:55:01.823Z,7.73
2019-05-26T15:59:26.438Z,5.63
2019-05-26T16:03:50.293Z,4.43
2019-05-26T16:07:58.882Z,7.17
2019-05-26T16:12:05.474Z,18.80
2019-05-26T16:16:13.399Z,29.33
2019-05-26T16:20:21.559Z,6.33
2019-05-26T16:24:46.177Z,9.07
2019-05-26T16:28:54.091Z,4.80
2019-05-26T16:33:06.154Z,4.07
2019-05-26T16:37:14.116Z,6.20
2019-05-26T16:41:22.022Z,3.23
2019-05-26T16:45:55.633Z,5.37
2019-05-26T16:49:56.615Z,9.03
2019-05-26T16:54:21.585Z,4.83
2019-05-26T16:58:28.675Z,2.67
2019-05-26T17:02:37.728Z,5.33
2019-05-26T17:06:47.841Z,5.60
2019-05-26T17:10:55.211Z,5.63
2019-05-26T17:15:21.138Z,5.40
2019-05-26T17:19:46.244Z,5.77
2019-05-26T17:24:10.981Z,6.90
2019-05-26T17:28:18.904Z,4.77
2019-05-26T17:32:27.242Z,4.73
2019-05-26T17:36:34.199Z,3.73
2019-05-26T17:40:42.140Z,6.17
2019-05-26T17:45:08.362Z,4.60
2019-05-26T17:49:16.851Z,5.33
2019-05-26T17:53:27.670Z,6.57
2019-05-26T17:57:37.141Z,4.50
2019-05-26T18:01:46.251Z,8.27
2019-05-26T18:05:52.834Z,6.03
2019-05-26T18:10:00.220Z,6.83
2019-05-26T18:14:09.188Z,4.17
2019-05-26T18:18:15.875Z,6.03
2019-05-26T18:22:22.706Z,4.50
2019-05-26T18:27:01.385Z,6.93
2019-05-26T18:31:08.154Z,5.80
2019-05-26T18:35:32.545Z,6.40
2019-05-26T18:39:39.165Z,4.63
2019-05-26T18:43:45.643Z,3.70
2019-05-26T18:48:02.446Z,8.87
2019-05-26T18:52:01.165Z,5.63
2019-05-26T18:56:08.878Z,8.43
2019-05-26T19:00:21.852Z,5.60
2019-05-26T19:04:46.786Z,6.70
2019-05-26T19:08:57.418Z,8.83
2019-05-26T19:13:15.476Z,8.87
2019-05-26T19:17:40.343Z,7.67
2019-05-26T19:22:05.988Z,8.47
2019-05-26T19:26:31.602Z,6.93
2019-05-26T19:30:45.854Z,8.50
2019-05-26T19:34:54.449Z,6.27
2019-05-26T19:39:08.187Z,7.43
2019-05-26T19:43:33.285Z,12.33
2019-05-26T19:47:40.114Z,13.93
2019-05-26T19:51:46.946Z,10.30
2019-05-26T19:56:04.946Z,10.07
2019-05-26T20:00:14.239Z,10.17
2019-05-26T20:04:39.230Z,6.97
2019-05-26T20:09:06.534Z,6.07
2019-05-26T20:13:23.624Z,8.87
2019-05-26T20:17:48.542Z,5.80
2019-05-26T20:21:58.930Z,12.50
2019-05-26T20:26:08.518Z,7.93
2019-05-26T20:30:20.990Z,6.27
2019-05-26T20:34:25.175Z,6.23
2019-05-26T20:38:38.930Z,6.70
2019-05-26T20:43:04.263Z,6.70
2019-05-26T20:47:12.598Z,10.20
2019-05-26T20:51:37.465Z,9.37
2019-05-26T20:56:01.646Z,11.40
2019-05-26T21:00:18.362Z,6.97
2019-05-26T21:04:26.262Z,8.87
2019-05-26T21:08:51.087Z,9.73
2019-05-26T21:12:59.005Z,8.97
2019-05-26T21:17:18.893Z,6.47
2019-05-26T21:21:34.061Z,7.97
2019-05-26T21:25:59.162Z,7.93
2019-05-26T21:30:19.186Z,11.80
2019-05-26T21:34:28.483Z,8.07
2019-05-26T21:38:36.081Z,11.03
2019-05-26T21:42:48.120Z,8.47
2019-05-26T21:47:01.602Z,12.33
2019-05-26T21:51:08.838Z,10.70
2019-05-26T21:55:15.374Z,8.57
2019-05-26T21:59:24.477Z,9.50
2019-05-26T22:03:49.445Z,9.33
2019-05-26T22:07:59.052Z,8.53
2019-05-26T22:12:05.457Z,9.50
2019-05-26T22:16:17.854Z,10.83
2019-05-26T22:20:25.070Z,8.30
2019-05-26T22:24:50.269Z,11.90
2019-05-26T22:29:02.091Z,10.10
2019-05-26T22:33:11.725Z,12.53
2019-05-26T22:37:18.741Z,8.30
2019-05-26T22:41:31.640Z,8.90
2019-05-26T22:45:41.766Z,9.33
2019-05-26T22:49:52.026Z,13.87
2019-05-26T22:54:01.814Z,9.13
2019-05-26T22:58:09.845Z,7.03
2019-05-26T23:02:18.667Z,8.20
2019-05-26T23:06:27.606Z,10.27
2019-05-26T23:10:36.458Z,13.80
2019-05-26T23:14:52.200Z,11.80
2019-05-26T23:19:16.440Z,9.97
2019-05-26T23:23:10.965Z,11.83
2019-05-26T23:27:17.793Z,10.57
2019-05-26T23:31:42.135Z,10.37
2019-05-26T23:35:54.199Z,13.37
2019-05-26T23:40:00.852Z,12.90
2019-05-26T23:44:26.099Z,10.67
2019-05-26T23:48:50.135Z,11.77
2019-05-26T23:52:56.865Z,15.00
2019-05-26T23:57:03.987Z,10.87
